createdAt,value
2022-08-24T00:00:25.487Z,101915.84
2022-08-24T00:02:59.083Z,101926.03
2022-08-24T00:05:46.405Z,101913.63
2022-08-24T00:08:15.602Z,101910.59
2022-08-24T00:10:45.854Z,101917.19
2022-08-24T00:13:21.377Z,101909.47
2022-08-24T00:15:53.456Z,101919.06
2022-08-24T00:18:24.282Z,101918.16
2022-08-24T00:20:56.949Z,101920.28
2022-08-24T00:23:26.653Z,101922.47
2022-08-24T00:25:57.527Z,101917.75
2022-08-24T00:28:27.818Z,101926.72
2022-08-24T00:30:57.217Z,101927.47
2022-08-24T00:33:27.308Z,101929.06
2022-08-24T00:35:57.147Z,101929.84
2022-08-24T00:38:27.768Z,101933.91
2022-08-24T00:40:59.133Z,101933.50
2022-08-24T00:43:27.935Z,101936.31
2022-08-24T00:46:15.851Z,101939.16
2022-08-24T00:48:50.419Z,101928.81
2022-08-24T00:51:28.557Z,101927.94
2022-08-24T00:54:04.576Z,101937.50
2022-08-24T00:56:41.981Z,101934.53
2022-08-24T00:59:22.251Z,101924.81
2022-08-24T01:01:56.148Z,101937.19
2022-08-24T01:04:46.905Z,101923.06
2022-08-24T01:07:17.223Z,101920.81
2022-08-24T01:09:45.709Z,101934.38
2022-08-24T01:12:14.278Z,101931.28
2022-08-24T01:14:42.877Z,101929.97
2022-08-24T01:17:29.571Z,101930.22
2022-08-24T01:20:07.541Z,101924.91
2022-08-24T01:23:00.246Z,101919.19
2022-08-24T01:25:37.005Z,101913.75
2022-08-24T01:28:15.953Z,101926.97
2022-08-24T01:30:46.149Z,101924.13
2022-08-24T01:33:30.413Z,101918.06
2022-08-24T01:36:04.517Z,101937.06
2022-08-24T01:38:35.001Z,101935.53
2022-08-24T01:41:08.352Z,101927.38
2022-08-24T01:43:41.835Z,101921.91
2022-08-24T01:46:12.689Z,101928.44
2022-08-24T01:49:02.857Z,101932.56
2022-08-24T01:51:35.423Z,101933.88
2022-08-24T01:54:06.978Z,101946.38
2022-08-24T02:02:33.906Z,101949.91
2022-08-24T02:05:03.868Z,101947.31
2022-08-24T02:07:34.289Z,101951.63
2022-08-24T02:10:03.702Z,101943.00
2022-08-24T02:13:25.539Z,101951.53
2022-08-24T02:15:55.789Z,101950.28
2022-08-24T02:18:24.967Z,101956.47
2022-08-24T02:20:55.206Z,101961.91
2022-08-24T02:23:27.091Z,101948.56
2022-08-24T02:25:56.900Z,101950.53
2022-08-24T02:28:25.944Z,101953.06
2022-08-24T02:30:56.104Z,101945.13
2022-08-24T02:33:25.681Z,101945.34
2022-08-24T02:35:55.869Z,101945.59
2022-08-24T02:38:24.962Z,101941.94
2022-08-24T02:40:55.391Z,101947.13
2022-08-24T02:43:26.862Z,101940.56
2022-08-24T02:45:57.128Z,101943.41
2022-08-24T02:48:25.994Z,101945.38
2022-08-24T02:50:55.250Z,101948.84
2022-08-24T02:56:27.124Z,101956.66
2022-08-24T02:58:57.361Z,101951.34
2022-08-24T03:04:30.163Z,101962.25
2022-08-24T03:06:59.244Z,101959.78
2022-08-24T03:09:28.924Z,101960.28
2022-08-24T03:12:01.539Z,101959.56
2022-08-24T03:14:30.498Z,101965.97
2022-08-24T03:17:01.588Z,101990.88
2022-08-24T03:19:30.553Z,101974.41
2022-08-24T03:22:02.302Z,101959.81
2022-08-24T03:24:31.306Z,101962.41
2022-08-24T03:27:00.805Z,101963.38
2022-08-24T03:29:34.626Z,101963.66
2022-08-24T03:32:06.401Z,101955.84
2022-08-24T03:43:32.143Z,101956.59
2022-08-24T03:52:41.797Z,101949.16
2022-08-24T04:04:11.619Z,101958.34
2022-08-24T04:09:44.083Z,101965.66
2022-08-24T04:12:12.990Z,101982.81
2022-08-24T04:23:47.646Z,101966.25
2022-08-24T04:26:32.469Z,101977.38
2022-08-24T04:29:10.881Z,101973.94
2022-08-24T04:31:40.952Z,101977.13
2022-08-24T04:34:11.028Z,101981.22
2022-08-24T04:36:41.562Z,101979.59
2022-08-24T04:39:12.054Z,101984.06
2022-08-24T04:41:43.186Z,101991.00
2022-08-24T04:44:13.926Z,101999.91
2022-08-24T04:46:44.131Z,101999.78
2022-08-24T04:49:13.213Z,101993.13
2022-08-24T04:51:42.104Z,102006.09
2022-08-24T04:54:11.015Z,102006.81
2022-08-24T04:56:39.285Z,102007.56
2022-08-24T04:59:09.199Z,102010.44
2022-08-24T05:01:44.507Z,102001.38
2022-08-24T05:04:16.112Z,102003.63
2022-08-24T05:06:44.851Z,102006.34
2022-08-24T05:09:13.758Z,102011.53
2022-08-24T05:11:49.711Z,102017.69
2022-08-24T05:14:20.712Z,102015.22
2022-08-24T05:16:53.127Z,102012.88
2022-08-24T05:19:23.354Z,102006.22
2022-08-24T05:21:52.864Z,101997.16
2022-08-24T05:24:21.439Z,102001.91
2022-08-24T05:26:52.379Z,102012.66
2022-08-24T05:29:23.701Z,102016.38
2022-08-24T05:31:54.511Z,102013.88
2022-08-24T05:34:25.142Z,102012.50
2022-08-24T05:36:53.917Z,102018.31
2022-08-24T05:39:23.422Z,102026.09
2022-08-24T05:41:52.069Z,102030.81
2022-08-24T05:44:22.240Z,102039.56
2022-08-24T05:46:52.758Z,102033.38
2022-08-24T05:49:22.629Z,102030.66
2022-08-24T05:51:52.386Z,102035.97
2022-08-24T05:54:26.912Z,102045.13
2022-08-24T05:56:57.821Z,102039.00
2022-08-24T05:59:32.209Z,102038.34
2022-08-24T06:02:18.370Z,102034.34
2022-08-24T06:04:48.077Z,102032.28
2022-08-24T06:07:19.386Z,102030.41
2022-08-24T06:19:15.489Z,102022.97
2022-08-24T06:21:46.800Z,102018.22
2022-08-24T06:24:18.613Z,102021.44
2022-08-24T06:27:05.517Z,102015.03
2022-08-24T06:29:36.517Z,102017.41
2022-08-24T06:32:07.217Z,102006.47
2022-08-24T06:34:44.579Z,102009.06
2022-08-24T06:37:29.375Z,102003.47
2022-08-24T06:45:26.984Z,102003.31
2022-08-24T06:47:57.295Z,101995.19
2022-08-24T06:50:27.728Z,101992.59
2022-08-24T06:52:58.194Z,101995.75
2022-08-24T06:55:29.738Z,101989.56
2022-08-24T06:57:59.698Z,101990.63
2022-08-24T07:00:28.936Z,101992.97
2022-08-24T07:02:57.870Z,101985.50
2022-08-24T07:05:29.013Z,101986.25
2022-08-24T07:10:42.615Z,101982.25
2022-08-24T07:13:12.524Z,101988.09
2022-08-24T07:15:44.945Z,101972.13
2022-08-24T07:18:16.955Z,101972.06
2022-08-24T07:21:19.850Z,101975.66
2022-08-24T07:23:49.324Z,101973.00
2022-08-24T07:29:13.606Z,101975.81
2022-08-24T07:31:51.942Z,101971.38
2022-08-24T07:34:34.413Z,101969.16
2022-08-24T07:39:51.134Z,101961.94
2022-08-24T07:42:27.128Z,101963.16
2022-08-24T07:45:00.863Z,101960.59
2022-08-24T07:47:43.237Z,101959.00
2022-08-24T07:53:20.866Z,101943.94
2022-08-24T07:55:57.838Z,101953.16
2022-08-24T07:58:27.778Z,101956.25
2022-08-24T08:00:58.071Z,101953.53
2022-08-24T08:03:30.147Z,101955.31
2022-08-24T08:05:59.312Z,101955.53
2022-08-24T08:08:29.869Z,101959.63
2022-08-24T08:10:59.249Z,101966.22
2022-08-24T08:13:29.620Z,101964.00
2022-08-24T08:16:18.031Z,101962.09
2022-08-24T08:18:52.198Z,101965.72
2022-08-24T08:21:48.508Z,101969.31
2022-08-24T08:24:23.965Z,101967.06
2022-08-24T08:32:37.947Z,101968.28
2022-08-24T08:35:10.190Z,101963.28
2022-08-24T08:37:40.212Z,101968.09
2022-08-24T08:40:28.513Z,101976.19
2022-08-24T08:43:11.554Z,101971.69
2022-08-24T08:46:08.845Z,101973.34
2022-08-24T08:49:31.904Z,101974.66
2022-08-24T08:52:56.514Z,101972.63
2022-08-24T08:59:22.249Z,101975.91
2022-08-24T09:05:16.460Z,101978.84
2022-08-24T09:11:18.271Z,101974.81
2022-08-24T09:14:21.491Z,101970.50
2022-08-24T09:21:32.126Z,101967.06
2022-08-24T09:24:18.428Z,101974.63
2022-08-24T09:30:07.442Z,101975.69
2022-08-24T09:33:14.698Z,101962.03
2022-08-24T09:36:16.920Z,101977.25
2022-08-24T09:39:06.165Z,101966.47
2022-08-24T09:45:40.623Z,101964.22
2022-08-24T09:48:36.634Z,101959.06
2022-08-24T09:51:46.514Z,101966.03
2022-08-24T09:55:15.383Z,101960.31
2022-08-24T09:58:13.603Z,101960.59
2022-08-24T10:00:52.021Z,101952.09
2022-08-24T10:13:50.052Z,101952.44
2022-08-24T10:16:40.224Z,101941.03
2022-08-24T10:20:01.939Z,101945.53
2022-08-24T10:22:54.398Z,101943.22
2022-08-24T10:29:23.308Z,101939.66
2022-08-24T10:42:57.071Z,101936.28
2022-08-24T10:46:27.303Z,101941.66
2022-08-24T10:49:55.466Z,101926.75
2022-08-24T10:53:25.480Z,101926.66
2022-08-24T10:56:13.904Z,101927.28
2022-08-24T10:59:04.626Z,101920.94
2022-08-24T11:02:09.506Z,101926.22
2022-08-24T11:04:43.547Z,101926.44
2022-08-24T11:07:23.317Z,101923.78
2022-08-24T11:09:56.929Z,101920.88
2022-08-24T11:12:31.032Z,101925.78
2022-08-24T11:15:04.084Z,101924.31
2022-08-24T11:17:36.005Z,101920.78
2022-08-24T11:20:26.031Z,101910.22
2022-08-24T11:23:08.737Z,101920.88
2022-08-24T11:25:43.503Z,101926.50
2022-08-24T11:28:24.588Z,101920.88
2022-08-24T11:30:53.852Z,101918.09
2022-08-24T11:33:32.414Z,101915.75
2022-08-24T11:36:04.761Z,101917.94
2022-08-24T11:38:55.989Z,101914.53
2022-08-24T11:51:36.266Z,101915.41
2022-08-24T11:54:19.648Z,101911.50
2022-08-24T11:57:09.410Z,101917.09
2022-08-24T11:59:51.066Z,101910.22
2022-08-24T12:02:34.153Z,101920.88
2022-08-24T12:05:10.203Z,101919.22
2022-08-24T12:08:02.083Z,101907.28
2022-08-24T12:10:55.947Z,101910.50
2022-08-24T12:13:34.808Z,101901.25
2022-08-24T12:16:14.575Z,101907.28
2022-08-24T12:18:55.734Z,101905.53
2022-08-24T12:21:39.790Z,101907.84
2022-08-24T12:24:18.664Z,101916.72
2022-08-24T12:26:53.133Z,101916.53
2022-08-24T12:29:39.453Z,101908.03
2022-08-24T12:32:16.994Z,101909.03
2022-08-24T12:35:00.950Z,101909.81
2022-08-24T12:37:36.918Z,101902.69
2022-08-24T12:40:25.618Z,101902.91
2022-08-24T12:46:07.025Z,101896.59
2022-08-24T12:48:47.417Z,101902.28
2022-08-24T12:54:38.746Z,101900.03
2022-08-24T12:57:26.699Z,101893.94
2022-08-24T13:00:02.991Z,101900.19
2022-08-24T13:02:47.921Z,101906.78
2022-08-24T13:05:21.255Z,101905.59
2022-08-24T13:08:10.134Z,101900.47
2022-08-24T13:10:44.999Z,101900.72
2022-08-24T13:13:33.373Z,101896.47
2022-08-24T13:16:25.946Z,101894.94
2022-08-24T13:19:34.411Z,101892.63
2022-08-24T13:29:14.408Z,101887.56
2022-08-24T13:31:54.883Z,101893.81
2022-08-24T13:34:52.945Z,101903.88
2022-08-24T13:37:26.298Z,101895.72
2022-08-24T13:40:15.124Z,101896.25
2022-08-24T13:43:13.630Z,101898.50
2022-08-24T13:45:52.591Z,101891.13
2022-08-24T13:48:55.688Z,101891.53
2022-08-24T13:51:45.840Z,101886.25
2022-08-24T13:54:28.607Z,101880.72
2022-08-24T14:01:11.424Z,101877.16
2022-08-24T14:04:24.888Z,101889.69
2022-08-24T14:07:01.662Z,101875.78
2022-08-24T14:09:47.728Z,101882.34
2022-08-24T14:12:43.245Z,101885.19
2022-08-24T14:15:27.531Z,101880.03
2022-08-24T14:18:11.762Z,101878.31
2022-08-24T14:24:46.285Z,101888.50
2022-08-24T14:34:23.863Z,101881.66
2022-08-24T14:37:06.749Z,101882.00
2022-08-24T14:40:17.258Z,101889.66
2022-08-24T14:42:57.471Z,101879.91
2022-08-24T15:07:23.037Z,101870.09
2022-08-24T15:09:56.140Z,101868.72
2022-08-24T15:16:10.251Z,101855.03
2022-08-24T15:21:56.721Z,101857.38
2022-08-24T15:24:48.277Z,101860.84
2022-08-24T15:27:43.085Z,101851.78
2022-08-24T15:30:26.036Z,101847.56
2022-08-24T15:36:31.014Z,101855.69
2022-08-24T15:52:28.244Z,101869.28
2022-08-24T16:12:52.245Z,101870.78
2022-08-24T16:32:30.205Z,101879.47
2022-08-24T16:35:20.922Z,101867.50
2022-08-24T16:47:05.237Z,101872.06
2022-08-24T16:49:40.933Z,101867.44
2022-08-24T16:52:27.386Z,101870.59
2022-08-24T16:54:58.282Z,101874.50
2022-08-24T17:00:49.652Z,101867.84
2022-08-24T17:06:59.920Z,101869.00
2022-08-24T17:09:32.490Z,101862.66
2022-08-24T17:14:57.594Z,101872.88
2022-08-24T17:17:32.323Z,101866.63
2022-08-24T17:20:03.644Z,101867.75
2022-08-24T17:22:40.521Z,101877.78
2022-08-24T17:28:21.569Z,101888.66
2022-08-24T17:30:53.528Z,101886.75
2022-08-24T17:33:40.602Z,101895.41
2022-08-24T17:42:46.958Z,101894.75
2022-08-24T17:45:10.612Z,101900.16
2022-08-24T18:03:54.758Z,101917.75
2022-08-24T18:07:14.816Z,101912.53
2022-08-24T18:13:11.300Z,101915.47
2022-08-24T18:15:53.584Z,101921.84
2022-08-24T18:18:22.083Z,101924.94
2022-08-24T18:20:50.984Z,101925.63
2022-08-24T18:23:24.596Z,101930.47
2022-08-24T18:28:38.043Z,101942.66
2022-08-24T18:34:09.942Z,101946.38
2022-08-24T18:36:47.714Z,101952.22
2022-08-24T18:39:21.274Z,101951.03
2022-08-24T18:47:44.915Z,101959.22
2022-08-24T18:50:23.593Z,101965.31
2022-08-24T18:52:56.305Z,101965.00
2022-08-24T18:55:27.462Z,101970.00
2022-08-24T18:57:57.304Z,101969.00
2022-08-24T19:00:27.203Z,101975.81
2022-08-24T19:03:13.683Z,101970.19
2022-08-24T19:05:45.372Z,101990.63
2022-08-24T19:14:58.624Z,101978.63
2022-08-24T19:23:48.437Z,101974.44
2022-08-24T19:32:50.558Z,102004.00
2022-08-24T19:44:23.563Z,102003.69
2022-08-24T19:50:07.856Z,102004.44
2022-08-24T19:52:39.923Z,102013.31
2022-08-24T20:04:24.889Z,102011.28
2022-08-24T20:06:54.931Z,101998.63
2022-08-24T20:12:20.027Z,102024.84
2022-08-24T20:17:46.049Z,102008.84
2022-08-24T20:20:20.002Z,102017.94
2022-08-24T20:22:50.706Z,102009.50
2022-08-24T20:25:20.441Z,102016.78
2022-08-24T20:27:58.099Z,102012.63
2022-08-24T20:30:41.821Z,102002.97
2022-08-24T20:33:16.960Z,102006.59
2022-08-24T20:35:46.944Z,101995.84
2022-08-24T20:38:23.826Z,102000.53
2022-08-24T20:40:53.356Z,102002.13
2022-08-24T20:43:23.529Z,101999.94
2022-08-24T20:48:40.276Z,102012.38
2022-08-24T20:51:12.138Z,102000.78
2022-08-24T20:53:42.230Z,102012.34
2022-08-24T20:56:20.878Z,102011.13
2022-08-24T20:58:57.291Z,102009.28
2022-08-24T21:01:25.933Z,102006.63
2022-08-24T21:03:54.714Z,102006.97
2022-08-24T21:06:23.890Z,102005.34
2022-08-24T21:08:56.521Z,101998.91
2022-08-24T21:11:25.312Z,102004.97
2022-08-24T21:13:55.539Z,101995.84
2022-08-24T21:16:26.596Z,101997.06
2022-08-24T21:18:56.258Z,101989.69
2022-08-24T21:21:24.772Z,101995.00
2022-08-24T21:23:58.631Z,102002.06
2022-08-24T21:26:31.605Z,101988.19
2022-08-24T21:29:00.757Z,101994.44
2022-08-24T21:31:31.340Z,101996.81
2022-08-24T21:34:17.304Z,101997.66
2022-08-24T21:36:52.669Z,101990.00
2022-08-24T21:39:25.650Z,101981.38
2022-08-24T21:41:54.741Z,101989.84
2022-08-24T21:44:23.378Z,101991.09
2022-08-24T21:46:55.687Z,101996.13
2022-08-24T21:49:26.563Z,101997.28
2022-08-24T21:51:57.729Z,101992.81
2022-08-24T21:54:30.323Z,101998.97
2022-08-24T21:56:59.702Z,101993.44
2022-08-24T21:59:29.716Z,101986.06
2022-08-24T22:01:58.933Z,101996.19
2022-08-24T22:04:27.812Z,101984.22
2022-08-24T22:06:57.743Z,101981.72
2022-08-24T22:09:27.130Z,101979.75
2022-08-24T22:12:00.585Z,101975.53
2022-08-24T22:14:29.675Z,101984.41
2022-08-24T22:17:02.377Z,101981.25
2022-08-24T22:19:33.999Z,101988.94
2022-08-24T22:22:03.488Z,101976.84
2022-08-24T22:24:33.639Z,101982.47
2022-08-24T22:27:05.259Z,101976.31
2022-08-24T22:29:36.629Z,101975.28
2022-08-24T22:32:05.723Z,101965.66
2022-08-24T22:34:36.547Z,101976.53
2022-08-24T22:37:06.342Z,101973.63
2022-08-24T22:39:35.230Z,101966.56
2022-08-24T22:42:06.169Z,101964.56
2022-08-24T22:44:35.582Z,101968.03
2022-08-24T22:47:13.392Z,101967.03
2022-08-24T22:49:46.666Z,101965.56
2022-08-24T22:52:16.651Z,101954.91
2022-08-24T22:54:45.475Z,101953.34
2022-08-24T22:57:19.773Z,101951.75
2022-08-24T22:59:49.518Z,101953.50
2022-08-24T23:02:19.839Z,101954.09
2022-08-24T23:05:07.031Z,101949.56
2022-08-24T23:07:36.951Z,101957.63
2022-08-24T23:10:10.541Z,101944.22
2022-08-24T23:12:40.803Z,101942.91
2022-08-24T23:15:12.960Z,101949.16
2022-08-24T23:17:43.051Z,101939.75
2022-08-24T23:20:12.484Z,101929.44
2022-08-24T23:22:43.662Z,101947.00
2022-08-24T23:25:14.605Z,101930.84
2022-08-24T23:27:48.062Z,101915.63
2022-08-24T23:30:22.051Z,101929.31
2022-08-24T23:32:51.306Z,101920.41
2022-08-24T23:35:19.934Z,101905.94
2022-08-24T23:37:48.602Z,101919.44
2022-08-24T23:40:18.973Z,101902.41
2022-08-24T23:42:55.260Z,101905.59
2022-08-24T23:45:28.113Z,101907.75
2022-08-24T23:47:58.939Z,101913.00
2022-08-24T23:50:28.691Z,101914.66
2022-08-24T23:52:59.893Z,101911.47
2022-08-24T23:55:30.185Z,101904.09
2022-08-24T23:58:00.757Z,101890.38
